sensor_id;sensor_type;location;lat;lon;timestamp;P1;durP1;ratioP1;P2;durP2;ratioP2
69253;SDS011;56364;41.816;12.448;2023-10-19T00:35:53;3.03;;;1.30;;
69253;SDS011;56364;41.816;12.448;2023-10-19T00:38:53;5.78;;;1.23;;
69253;SDS011;56364;41.816;12.448;2023-10-19T00:43:54;4.78;;;1.20;;
69253;SDS011;56364;41.816;12.448;2023-10-19T00:46:36;1.70;;;1.00;;
69253;SDS011;56364;41.816;12.448;2023-10-19T00:49:06;1.88;;;1.00;;
69253;SDS011;56364;41.816;12.448;2023-10-19T01:33:03;2.25;;;0.80;;
69253;SDS011;56364;41.816;12.448;2023-10-19T01:58:50;2.95;;;1.30;;
69253;SDS011;56364;41.816;12.448;2023-10-19T02:01:17;4.18;;;1.52;;
69253;SDS011;56364;41.816;12.448;2023-10-19T02:03:57;3.42;;;1.45;;
69253;SDS011;56364;41.816;12.448;2023-10-19T02:06:31;4.53;;;1.10;;
69253;SDS011;56364;41.816;12.448;2023-10-19T02:11:45;3.05;;;1.50;;
69253;SDS011;56364;41.816;12.448;2023-10-19T02:14:15;4.13;;;1.33;;
69253;SDS011;56364;41.816;12.448;2023-10-19T02:16:53;8.07;;;1.30;;
69253;SDS011;56364;41.816;12.448;2023-10-19T02:19:32;4.53;;;1.50;;
69253;SDS011;56364;41.816;12.448;2023-10-19T02:22:02;3.08;;;1.20;;
69253;SDS011;56364;41.816;12.448;2023-10-19T02:24:32;3.58;;;1.17;;
69253;SDS011;56364;41.816;12.448;2023-10-19T02:26:58;4.32;;;1.20;;
69253;SDS011;56364;41.816;12.448;2023-10-19T02:29:26;3.63;;;1.25;;
69253;SDS011;56364;41.816;12.448;2023-10-19T02:31:52;6.38;;;1.60;;
69253;SDS011;56364;41.816;12.448;2023-10-19T02:34:22;1.90;;;1.17;;
69253;SDS011;56364;41.816;12.448;2023-10-19T02:36:48;4.80;;;1.45;;
69253;SDS011;56364;41.816;12.448;2023-10-19T02:39:14;3.47;;;1.20;;
69253;SDS011;56364;41.816;12.448;2023-10-19T02:41:46;10.15;;;1.30;;
69253;SDS011;56364;41.816;12.448;2023-10-19T02:44:22;5.85;;;1.05;;
69253;SDS011;56364;41.816;12.448;2023-10-19T02:46:56;6.03;;;1.30;;
69253;SDS011;56364;41.816;12.448;2023-10-19T02:49:25;2.08;;;1.50;;
69253;SDS011;56364;41.816;12.448;2023-10-19T02:51:52;2.85;;;1.33;;
69253;SDS011;56364;41.816;12.448;2023-10-19T02:54:20;2.15;;;1.13;;
69253;SDS011;56364;41.816;12.448;2023-10-19T03:02:24;3.90;;;1.50;;
69253;SDS011;56364;41.816;12.448;2023-10-19T03:04:54;3.58;;;1.10;;
69253;SDS011;56364;41.816;12.448;2023-10-19T03:07:20;2.88;;;1.25;;
69253;SDS011;56364;41.816;12.448;2023-10-19T03:09:46;12.50;;;1.55;;
69253;SDS011;56364;41.816;12.448;2023-10-19T03:37:59;4.32;;;1.23;;
69253;SDS011;56364;41.816;12.448;2023-10-19T03:40:43;9.00;;;1.45;;
69253;SDS011;56364;41.816;12.448;2023-10-19T03:43:20;4.80;;;1.48;;
69253;SDS011;56364;41.816;12.448;2023-10-19T03:45:52;6.50;;;1.70;;
69253;SDS011;56364;41.816;12.448;2023-10-19T03:48:19;6.13;;;1.40;;
69253;SDS011;56364;41.816;12.448;2023-10-19T04:02:03;10.68;;;1.83;;
69253;SDS011;56364;41.816;12.448;2023-10-19T04:04:39;7.25;;;1.27;;
69253;SDS011;56364;41.816;12.448;2023-10-19T04:07:08;6.93;;;1.52;;
69253;SDS011;56364;41.816;12.448;2023-10-19T04:09:51;3.67;;;1.70;;
69253;SDS011;56364;41.816;12.448;2023-10-19T04:12:23;3.95;;;1.42;;
69253;SDS011;56364;41.816;12.448;2023-10-19T04:14:50;5.70;;;1.60;;
69253;SDS011;56364;41.816;12.448;2023-10-19T04:17:26;4.18;;;1.40;;
69253;SDS011;56364;41.816;12.448;2023-10-19T04:19:53;3.90;;;1.63;;
69253;SDS011;56364;41.816;12.448;2023-10-19T04:22:20;5.13;;;1.73;;
69253;SDS011;56364;41.816;12.448;2023-10-19T04:24:52;4.95;;;1.83;;
69253;SDS011;56364;41.816;12.448;2023-10-19T04:27:26;8.05;;;1.88;;
69253;SDS011;56364;41.816;12.448;2023-10-19T04:33:16;7.05;;;1.88;;
69253;SDS011;56364;41.816;12.448;2023-10-19T04:38:16;10.25;;;1.83;;
69253;SDS011;56364;41.816;12.448;2023-10-19T04:40:43;4.55;;;1.70;;
69253;SDS011;56364;41.816;12.448;2023-10-19T04:43:12;6.57;;;1.67;;
69253;SDS011;56364;41.816;12.448;2023-10-19T04:45:43;7.88;;;1.85;;
69253;SDS011;56364;41.816;12.448;2023-10-19T04:48:10;6.22;;;1.92;;
69253;SDS011;56364;41.816;12.448;2023-10-19T04:50:36;8.23;;;1.92;;
69253;SDS011;56364;41.816;12.448;2023-10-19T04:53:02;7.50;;;1.98;;
69253;SDS011;56364;41.816;12.448;2023-10-19T04:55:29;6.70;;;2.05;;
69253;SDS011;56364;41.816;12.448;2023-10-19T05:10:53;7.72;;;1.90;;
69253;SDS011;56364;41.816;12.448;2023-10-19T05:26:18;9.90;;;2.33;;
69253;SDS011;56364;41.816;12.448;2023-10-19T05:34:24;11.88;;;2.80;;
69253;SDS011;56364;41.816;12.448;2023-10-19T05:39:34;9.23;;;2.33;;
69253;SDS011;56364;41.816;12.448;2023-10-19T05:42:01;8.18;;;2.30;;
69253;SDS011;56364;41.816;12.448;2023-10-19T05:49:39;6.57;;;2.35;;
69253;SDS011;56364;41.816;12.448;2023-10-19T05:54:42;6.70;;;2.28;;
69253;SDS011;56364;41.816;12.448;2023-10-19T05:59:43;10.98;;;2.78;;
69253;SDS011;56364;41.816;12.448;2023-10-19T06:02:09;10.27;;;2.47;;
69253;SDS011;56364;41.816;12.448;2023-10-19T06:04:37;6.07;;;2.50;;
69253;SDS011;56364;41.816;12.448;2023-10-19T06:07:03;5.43;;;2.53;;
69253;SDS011;56364;41.816;12.448;2023-10-19T06:09:35;10.07;;;3.75;;
69253;SDS011;56364;41.816;12.448;2023-10-19T06:12:01;10.82;;;2.78;;
69253;SDS011;56364;41.816;12.448;2023-10-19T06:15:03;5.68;;;2.28;;
69253;SDS011;56364;41.816;12.448;2023-10-19T06:39:10;5.10;;;2.50;;
69253;SDS011;56364;41.816;12.448;2023-10-19T06:41:39;8.85;;;2.55;;
69253;SDS011;56364;41.816;12.448;2023-10-19T06:44:05;10.52;;;3.00;;
69253;SDS011;56364;41.816;12.448;2023-10-19T06:46:31;8.48;;;3.38;;
69253;SDS011;56364;41.816;12.448;2023-10-19T06:49:04;13.82;;;3.03;;
69253;SDS011;56364;41.816;12.448;2023-10-19T06:54:18;11.38;;;3.33;;
69253;SDS011;56364;41.816;12.448;2023-10-19T07:17:54;8.95;;;2.60;;
69253;SDS011;56364;41.816;12.448;2023-10-19T07:20:21;12.20;;;3.30;;
69253;SDS011;56364;41.816;12.448;2023-10-19T07:22:53;8.88;;;3.30;;
69253;SDS011;56364;41.816;12.448;2023-10-19T07:25:21;9.90;;;3.65;;
69253;SDS011;56364;41.816;12.448;2023-10-19T07:27:50;12.88;;;3.03;;
69253;SDS011;56364;41.816;12.448;2023-10-19T07:35:43;12.38;;;3.55;;
69253;SDS011;56364;41.816;12.448;2023-10-19T07:38:30;13.32;;;3.70;;
69253;SDS011;56364;41.816;12.448;2023-10-19T07:40:58;17.73;;;3.85;;
69253;SDS011;56364;41.816;12.448;2023-10-19T07:43:25;10.32;;;3.35;;
69253;SDS011;56364;41.816;12.448;2023-10-19T07:45:52;9.18;;;3.50;;
69253;SDS011;56364;41.816;12.448;2023-10-19T07:48:18;9.60;;;3.25;;
69253;SDS011;56364;41.816;12.448;2023-10-19T07:50:44;11.95;;;3.25;;
69253;SDS011;56364;41.816;12.448;2023-10-19T08:11:13;13.05;;;3.67;;
69253;SDS011;56364;41.816;12.448;2023-10-19T08:13:40;6.78;;;3.22;;
69253;SDS011;56364;41.816;12.448;2023-10-19T08:16:07;8.93;;;3.08;;
69253;SDS011;56364;41.816;12.448;2023-10-19T08:18:33;6.68;;;3.08;;
69253;SDS011;56364;41.816;12.448;2023-10-19T08:21:05;10.68;;;3.47;;
69253;SDS011;56364;41.816;12.448;2023-10-19T08:23:32;11.38;;;3.53;;
69253;SDS011;56364;41.816;12.448;2023-10-19T08:25:58;9.32;;;3.38;;
69253;SDS011;56364;41.816;12.448;2023-10-19T08:54:43;13.05;;;3.72;;
69253;SDS011;56364;41.816;12.448;2023-10-19T08:57:21;7.72;;;3.17;;
69253;SDS011;56364;41.816;12.448;2023-10-19T08:59:48;8.02;;;3.20;;
69253;SDS011;56364;41.816;12.448;2023-10-19T09:02:14;9.05;;;3.33;;
69253;SDS011;56364;41.816;12.448;2023-10-19T09:04:47;10.52;;;3.55;;
69253;SDS011;56364;41.816;12.448;2023-10-19T09:07:13;17.92;;;3.78;;
69253;SDS011;56364;41.816;12.448;2023-10-19T09:09:41;10.20;;;3.38;;
69253;SDS011;56364;41.816;12.448;2023-10-19T09:12:07;20.40;;;4.05;;
69253;SDS011;56364;41.816;12.448;2023-10-19T09:14:35;12.75;;;3.78;;
69253;SDS011;56364;41.816;12.448;2023-10-19T09:17:04;36.55;;;5.53;;
69253;SDS011;56364;41.816;12.448;2023-10-19T09:19:41;14.73;;;3.75;;
69253;SDS011;56364;41.816;12.448;2023-10-19T09:22:07;26.02;;;3.90;;
69253;SDS011;56364;41.816;12.448;2023-10-19T09:24:43;18.38;;;4.00;;
69253;SDS011;56364;41.816;12.448;2023-10-19T09:27:10;15.20;;;3.45;;
69253;SDS011;56364;41.816;12.448;2023-10-19T09:29:37;18.13;;;3.80;;
69253;SDS011;56364;41.816;12.448;2023-10-19T09:32:03;14.15;;;3.72;;
69253;SDS011;56364;41.816;12.448;2023-10-19T09:34:31;10.77;;;3.38;;
69253;SDS011;56364;41.816;12.448;2023-10-19T09:37:00;14.15;;;3.85;;
69253;SDS011;56364;41.816;12.448;2023-10-19T09:39:47;14.55;;;3.35;;
69253;SDS011;56364;41.816;12.448;2023-10-19T09:58:06;13.20;;;3.25;;
69253;SDS011;56364;41.816;12.448;2023-10-19T10:10:53;10.90;;;3.83;;
69253;SDS011;56364;41.816;12.448;2023-10-19T10:15:53;15.45;;;4.53;;
69253;SDS011;56364;41.816;12.448;2023-10-19T10:18:20;15.20;;;3.67;;
69253;SDS011;56364;41.816;12.448;2023-10-19T10:36:04;15.15;;;3.70;;
69253;SDS011;56364;41.816;12.448;2023-10-19T10:38:34;16.73;;;4.15;;
69253;SDS011;56364;41.816;12.448;2023-10-19T10:41:05;17.10;;;4.57;;
69253;SDS011;56364;41.816;12.448;2023-10-19T10:46:32;11.95;;;3.78;;
69253;SDS011;56364;41.816;12.448;2023-10-19T13:27:33;12.35;;;3.03;;
69253;SDS011;56364;41.816;12.448;2023-10-19T13:59:00;14.07;;;3.58;;
69253;SDS011;56364;41.816;12.448;2023-10-19T16:04:06;20.40;;;3.40;;
69253;SDS011;56364;41.816;12.448;2023-10-19T16:31:17;16.73;;;3.42;;
69253;SDS011;56364;41.816;12.448;2023-10-19T16:33:50;15.68;;;4.20;;
69253;SDS011;56364;41.816;12.448;2023-10-19T16:36:18;24.25;;;3.00;;
69253;SDS011;56364;41.816;12.448;2023-10-19T16:38:46;17.65;;;2.63;;
69253;SDS011;56364;41.816;12.448;2023-10-19T16:41:12;17.77;;;3.53;;
69253;SDS011;56364;41.816;12.448;2023-10-19T16:43:39;16.73;;;3.00;;
69253;SDS011;56364;41.816;12.448;2023-10-19T16:46:05;23.92;;;4.10;;
69253;SDS011;56364;41.816;12.448;2023-10-19T16:48:31;16.33;;;3.50;;
69253;SDS011;56364;41.816;12.448;2023-10-19T16:53:41;14.80;;;3.05;;
69253;SDS011;56364;41.816;12.448;2023-10-19T16:56:07;10.43;;;3.00;;
69253;SDS011;56364;41.816;12.448;2023-10-19T16:58:34;15.80;;;3.72;;
69253;SDS011;56364;41.816;12.448;2023-10-19T17:01:04;17.67;;;3.45;;
69253;SDS011;56364;41.816;12.448;2023-10-19T17:03:30;24.80;;;4.78;;
69253;SDS011;56364;41.816;12.448;2023-10-19T17:05:56;20.33;;;2.83;;
69253;SDS011;56364;41.816;12.448;2023-10-19T17:16:05;18.35;;;3.13;;
69253;SDS011;56364;41.816;12.448;2023-10-19T17:18:34;21.55;;;4.40;;
69253;SDS011;56364;41.816;12.448;2023-10-19T17:21:02;21.88;;;3.15;;
69253;SDS011;56364;41.816;12.448;2023-10-19T17:23:28;16.70;;;3.50;;
69253;SDS011;56364;41.816;12.448;2023-10-19T17:25:55;13.93;;;3.10;;
69253;SDS011;56364;41.816;12.448;2023-10-19T18:06:16;15.88;;;3.60;;
69253;SDS011;56364;41.816;12.448;2023-10-19T18:13:58;16.92;;;4.38;;
69253;SDS011;56364;41.816;12.448;2023-10-19T18:18:57;21.40;;;3.17;;
69253;SDS011;56364;41.816;12.448;2023-10-19T18:21:23;17.15;;;3.67;;
69253;SDS011;56364;41.816;12.448;2023-10-19T18:23:50;21.33;;;3.30;;
69253;SDS011;56364;41.816;12.448;2023-10-19T18:26:22;16.88;;;3.47;;
69253;SDS011;56364;41.816;12.448;2023-10-19T18:28:48;17.83;;;3.42;;
69253;SDS011;56364;41.816;12.448;2023-10-19T18:31:14;20.20;;;4.28;;
69253;SDS011;56364;41.816;12.448;2023-10-19T18:33:41;22.60;;;4.63;;
69253;SDS011;56364;41.816;12.448;2023-10-19T18:36:07;18.20;;;3.80;;
69253;SDS011;56364;41.816;12.448;2023-10-19T18:38:38;15.80;;;3.33;;
69253;SDS011;56364;41.816;12.448;2023-10-19T18:41:06;21.98;;;3.78;;
69253;SDS011;56364;41.816;12.448;2023-10-19T18:43:32;19.20;;;3.45;;
69253;SDS011;56364;41.816;12.448;2023-10-19T18:45:59;22.33;;;4.45;;
69253;SDS011;56364;41.816;12.448;2023-10-19T19:01:35;16.17;;;4.68;;
69253;SDS011;56364;41.816;12.448;2023-10-19T19:06:52;13.45;;;4.07;;
69253;SDS011;56364;41.816;12.448;2023-10-19T19:20:12;24.02;;;4.60;;
69253;SDS011;56364;41.816;12.448;2023-10-19T19:22:40;25.90;;;5.25;;
69253;SDS011;56364;41.816;12.448;2023-10-19T19:28:06;21.48;;;4.72;;
69253;SDS011;56364;41.816;12.448;2023-10-19T19:30:40;26.65;;;5.47;;
69253;SDS011;56364;41.816;12.448;2023-10-19T19:33:24;24.88;;;4.32;;
69253;SDS011;56364;41.816;12.448;2023-10-19T19:35:53;22.05;;;4.55;;
69253;SDS011;56364;41.816;12.448;2023-10-19T19:53:55;25.45;;;4.38;;
69253;SDS011;56364;41.816;12.448;2023-10-19T19:56:21;24.48;;;5.22;;
69253;SDS011;56364;41.816;12.448;2023-10-19T19:58:51;22.48;;;5.43;;
69253;SDS011;56364;41.816;12.448;2023-10-19T20:01:17;23.95;;;4.80;;
69253;SDS011;56364;41.816;12.448;2023-10-19T20:06:32;13.52;;;4.55;;
69253;SDS011;56364;41.816;12.448;2023-10-19T20:09:02;21.13;;;4.97;;
69253;SDS011;56364;41.816;12.448;2023-10-19T20:11:28;21.27;;;4.53;;
69253;SDS011;56364;41.816;12.448;2023-10-19T20:13:54;25.92;;;4.88;;
69253;SDS011;56364;41.816;12.448;2023-10-19T20:16:27;29.92;;;5.13;;
69253;SDS011;56364;41.816;12.448;2023-10-19T20:18:55;27.67;;;4.78;;
69253;SDS011;56364;41.816;12.448;2023-10-19T20:23:52;15.27;;;3.88;;
69253;SDS011;56364;41.816;12.448;2023-10-19T20:26:18;24.55;;;5.07;;
69253;SDS011;56364;41.816;12.448;2023-10-19T20:28:44;22.48;;;5.10;;
69253;SDS011;56364;41.816;12.448;2023-10-19T20:31:10;23.33;;;4.38;;
69253;SDS011;56364;41.816;12.448;2023-10-19T20:33:36;19.90;;;4.82;;
69253;SDS011;56364;41.816;12.448;2023-10-19T20:36:02;22.98;;;4.35;;
69253;SDS011;56364;41.816;12.448;2023-10-19T20:38:28;19.23;;;5.25;;
69253;SDS011;56364;41.816;12.448;2023-10-19T20:40:54;19.92;;;3.80;;
69253;SDS011;56364;41.816;12.448;2023-10-19T20:43:22;22.52;;;4.35;;
69253;SDS011;56364;41.816;12.448;2023-10-19T21:01:22;20.63;;;3.53;;
69253;SDS011;56364;41.816;12.448;2023-10-19T21:06:20;19.67;;;4.35;;
69253;SDS011;56364;41.816;12.448;2023-10-19T21:08:46;18.63;;;4.60;;
69253;SDS011;56364;41.816;12.448;2023-10-19T21:11:16;29.55;;;5.18;;
69253;SDS011;56364;41.816;12.448;2023-10-19T21:13:43;15.20;;;3.75;;
69253;SDS011;56364;41.816;12.448;2023-10-19T21:16:09;22.73;;;4.13;;
69253;SDS011;56364;41.816;12.448;2023-10-19T21:18:38;18.98;;;3.92;;
69253;SDS011;56364;41.816;12.448;2023-10-19T21:21:08;19.30;;;4.15;;
69253;SDS011;56364;41.816;12.448;2023-10-19T21:23:35;13.73;;;4.40;;
69253;SDS011;56364;41.816;12.448;2023-10-19T21:26:01;21.02;;;4.32;;
69253;SDS011;56364;41.816;12.448;2023-10-19T21:31:19;13.25;;;3.95;;
69253;SDS011;56364;41.816;12.448;2023-10-19T21:33:47;13.57;;;3.25;;
69253;SDS011;56364;41.816;12.448;2023-10-19T21:36:13;18.38;;;4.55;;
69253;SDS011;56364;41.816;12.448;2023-10-19T21:38:39;14.90;;;4.72;;
69253;SDS011;56364;41.816;12.448;2023-10-19T21:41:06;25.67;;;4.43;;
69253;SDS011;56364;41.816;12.448;2023-10-19T21:48:52;12.63;;;4.10;;
69253;SDS011;56364;41.816;12.448;2023-10-19T21:57:05;22.95;;;4.72;;
69253;SDS011;56364;41.816;12.448;2023-10-19T23:30:33;17.13;;;3.85;;
69253;SDS011;56364;41.816;12.448;2023-10-19T23:33:00;15.23;;;3.65;;
69253;SDS011;56364;41.816;12.448;2023-10-19T23:35:29;15.45;;;3.63;;
69253;SDS011;56364;41.816;12.448;2023-10-19T23:37:55;19.10;;;4.35;;
69253;SDS011;56364;41.816;12.448;2023-10-19T23:40:21;17.33;;;3.45;;
69253;SDS011;56364;41.816;12.448;2023-10-19T23:42:47;19.00;;;4.10;;
69253;SDS011;56364;41.816;12.448;2023-10-19T23:45:14;16.95;;;3.45;;
69253;SDS011;56364;41.816;12.448;2023-10-19T23:47:40;19.88;;;3.80;;
69253;SDS011;56364;41.816;12.448;2023-10-19T23:50:07;15.50;;;3.85;;
69253;SDS011;56364;41.816;12.448;2023-10-19T23:52:34;15.77;;;3.33;;
69253;SDS011;56364;41.816;12.448;2023-10-19T23:55:00;14.63;;;3.90;;
69253;SDS011;56364;41.816;12.448;2023-10-19T23:57:26;16.95;;;3.67;;
69253;SDS011;56364;41.816;12.448;2023-10-19T23:59:53;17.05;;;3.58;;
